Carrier Princess — CZ3582 — position and weather

sailwx.info

Track history (hours):
 
Tides and Currents Weather Stations Pressure Air Temp Water Temp Dewpoint Dewpoint Depression Visibility Wind Speed Wind Dir Waves Ship Positions

Carrier Princess

Last reported at 2015-Mar-02 18:34 UTC. Time now 2015-Mar-02 18:59 UTC.
Position N 49°09' W 123°02'.

Length 112 m; draft 3 m.

Type: Cargo ship. MMSI: 316003656.

Date/timePositionNaut miles runAvg speedWind from/ knotsBaromVisibWave heightAir tempDewpointWater temp
2015-Mar-02 18:34N 49°09' W 123°02'0 0.0
2015-Mar-02 17:34N 49°09' W 123°02'0 0.0
2015-Mar-02 16:33N 49°09' W 123°02'0 0.0
2015-Mar-02 15:34N 49°09' W 123°02'0 0.0
2015-Mar-02 14:34N 49°09' W 123°02'0 0.0
2015-Mar-02 13:34N 49°09' W 123°02'0 0.0
2015-Mar-02 12:34N 49°09' W 123°02'0 0.0
2015-Mar-02 11:34N 49°09' W 123°02'0 0.0
2015-Mar-02 10:34N 49°09' W 123°02'0 0.0
2015-Mar-02 09:34N 49°09' W 123°02'0 0.0
2015-Mar-02 08:34N 49°09' W 123°02'0 0.0
2015-Mar-02 07:34N 49°09' W 123°02'0 0.0
2015-Mar-02 06:33N 49°09' W 123°02'0 0.0
2015-Mar-02 05:34N 49°09' W 123°02'0 0.0
2015-Mar-02 04:34N 49°09' W 123°02'0 0.0
2015-Mar-02 03:34N 49°09' W 123°02'0 0.0
2015-Mar-02 02:34N 49°09' W 123°02'0 0.0
2015-Mar-02 01:34N 49°09' W 123°02'0 0.0
2015-Mar-02 00:34N 49°09' W 123°02'0 0.0
2015-Mar-01 23:34N 49°09' W 123°02'0 0.0
2015-Mar-01 22:33N 49°09' W 123°02'0 0.0
2015-Mar-01 21:34N 49°09' W 123°02'0 0.0
2015-Mar-01 20:34N 49°09' W 123°02'0 0.0
2015-Mar-01 19:34N 49°09' W 123°02'0 0.0
2015-Mar-01 18:34N 49°09' W 123°02'0 0.0
2015-Mar-01 17:34N 49°09' W 123°02'0 0.0
2015-Mar-01 16:34N 49°09' W 123°02'2 2.4
2015-Mar-01 15:34N 49°07' W 123°05'9 9.4
2015-Mar-01 14:34N 49°06' W 123°19'1110.8
2015-Mar-01 13:34N 49°10' W 123°35'1110.5
2015-Mar-01 12:33N 49°13' W 123°50'5 4.7
2015-Mar-01 11:33N 49°10' W 123°56'0 0.0
2015-Mar-01 10:33N 49°10' W 123°56'7 6.7
2015-Mar-01 09:33N 49°13' W 123°47'8 7.9
2015-Mar-01 08:34N 49°10' W 123°36'10 9.8
2015-Mar-01 07:34N 49°07' W 123°22'1010.2
2015-Mar-01 06:33N 49°07' W 123°06'3 3.3
2015-Mar-01 05:34N 49°09' W 123°02'0 0.0
2015-Mar-01 04:34N 49°09' W 123°02'0 0.0
2015-Mar-01 03:34N 49°09' W 123°02'0 0.0
2015-Mar-01 02:33N 49°09' W 123°02'0 0.0
2015-Mar-01 01:34N 49°09' W 123°02'0 0.0
2015-Mar-01 00:34N 49°09' W 123°02'0 0.0
2015-Feb-28 23:34N 49°09' W 123°02'5 4.6
2015-Feb-28 22:34N 49°06' W 123°08'8 8.2
2015-Feb-28 21:34N 49°02' W 123°19'1212.1
2015-Feb-28 20:33N 48°50' W 123°21'9 9.0
2015-Feb-28 19:33N 48°41' W 123°24'0 0.0
2015-Feb-28 18:34N 48°41' W 123°24'0 0.0
2015-Feb-28 17:33N 48°41' W 123°24'0 0.0
2015-Feb-28 16:34N 48°41' W 123°24'0 0.0
2015-Feb-28 15:33N 48°41' W 123°24'0 0.0
2015-Feb-28 14:33N 48°41' W 123°24'0 0.0
2015-Feb-28 13:33N 48°41' W 123°24'3 3.4
2015-Feb-28 12:33N 48°44' W 123°21'1312.7
2015-Feb-28 11:33N 48°56' W 123°18'1211.8
2015-Feb-28 10:34N 49°08' W 123°15'8 8.2
2015-Feb-28 09:33N 49°09' W 123°02'0 0.0
2015-Feb-28 08:33N 49°09' W 123°02'9 8.9
2015-Feb-28 07:33N 49°07' W 123°16'1110.8
2015-Feb-28 06:33N 49°09' W 123°32'1111.4
2015-Feb-28 05:33N 49°13' W 123°48'6 5.8
2015-Feb-28 04:33N 49°10' W 123°56'0 0.1
2015-Feb-28 03:33N 49°10' W 123°56'1212.2
2015-Feb-28 02:33N 49°11' W 123°37'1514.7
2015-Feb-28 01:33N 49°08' W 123°15'8 8.5
2015-Feb-28 00:33N 49°09' W 123°02'0 0.0
2015-Feb-27 23:33N 49°09' W 123°02'4 4.2
2015-Feb-27 22:33N 49°06' W 123°08'9 8.8
2015-Feb-27 21:33N 49°02' W 123°19'1211.7
2015-Feb-27 20:33N 48°50' W 123°21'9 8.7
2015-Feb-27 19:31N 48°41' W 123°24'0 0.0
2015-Feb-27 18:31N 48°41' W 123°24'0 0.0
2015-Feb-27 17:33N 48°41' W 123°24'0 0.0
2015-Feb-27 16:33N 48°41' W 123°24'0 0.0
2015-Feb-27 15:32N 48°41' W 123°24'0 0.0
2015-Feb-27 14:33N 48°41' W 123°24'0 0.0
2015-Feb-27 13:33N 48°41' W 123°24'5 4.7
2015-Feb-27 12:33N 48°45' W 123°21'1212.3
2015-Feb-27 11:33N 48°58' W 123°19'1110.9
2015-Feb-27 10:34N 49°08' W 123°14'7 7.5
2015-Feb-27 09:33N 49°09' W 123°02'0 0.0
2015-Feb-27 08:33N 49°09' W 123°02'10 9.7
2015-Feb-27 07:33N 49°07' W 123°17'1111.3
2015-Feb-27 06:33N 49°09' W 123°34'1212.0
2015-Feb-27 05:33N 49°13' W 123°51'4 3.8
2015-Feb-27 04:32N 49°10' W 123°56'0 0.3
2015-Feb-27 03:33N 49°10' W 123°55'1010.2
2015-Feb-27 02:33N 49°12' W 123°40'1211.9
2015-Feb-27 01:33N 49°07' W 123°24'1313.4
2015-Feb-27 00:34N 49°08' W 123°03'1 0.8
2015-Feb-26 23:34N 49°09' W 123°02'3 3.2
2015-Feb-26 22:33N 49°07' W 123°06'9 9.3
2015-Feb-26 21:34N 49°03' W 123°19'1312.8
2015-Feb-26 20:33N 48°50' W 123°21'9 9.1
2015-Feb-26 19:32N 48°41' W 123°24'0 0.0
2015-Feb-26 18:33N 48°41' W 123°24'0 0.0
2015-Feb-26 17:33N 48°41' W 123°24'0 0.0
2015-Feb-26 16:33N 48°41' W 123°24'0 0.0
2015-Feb-26 15:33N 48°41' W 123°24'0 0.0
2015-Feb-26 14:33N 48°41' W 123°24'0 0.0
2015-Feb-26 13:33N 48°41' W 123°24'4 4.0
2015-Feb-26 12:33N 48°45' W 123°21'1212.3
2015-Feb-26 11:33N 48°57' W 123°19'1111.3
2015-Feb-26 10:34N 49°08' W 123°15'8 8.3
2015-Feb-26 09:33N 49°09' W 123°02'0 0.0
2015-Feb-26 08:33N 49°09' W 123°02'9 9.2
2015-Feb-26 07:33N 49°07' W 123°16'1110.5
2015-Feb-26 06:33N 49°09' W 123°32'1111.3
2015-Feb-26 05:33N 49°13' W 123°48'6 5.4
2015-Feb-26 04:27N 49°10' W 123°56'0 0.0
2015-Feb-26 03:32N 49°10' W 123°56'10 9.7
2015-Feb-26 02:33N 49°12' W 123°41'1312.7
2015-Feb-26 01:33N 49°07' W 123°24'1313.4
2015-Feb-26 00:34N 49°08' W 123°03'1 0.9
2015-Feb-25 23:33N 49°09' W 123°02'5 5.0
2015-Feb-25 22:33N 49°06' W 123°09'8 8.2
2015-Feb-25 21:33N 49°02' W 123°19'1212.2
2015-Feb-25 20:33N 48°50' W 123°20'9 8.8
2015-Feb-25 19:33N 48°41' W 123°24'0 0.0
2015-Feb-25 18:32N 48°41' W 123°24'0 0.0
2015-Feb-25 17:33N 48°41' W 123°24'0 0.0
2015-Feb-25 16:33N 48°41' W 123°24'0 0.0
2015-Feb-25 15:33N 48°41' W 123°24'0 0.0
2015-Feb-25 14:33N 48°41' W 123°24'0 0.0
2015-Feb-25 13:33N 48°41' W 123°24'4 3.6
2015-Feb-25 12:33N 48°44' W 123°21'1212.3
2015-Feb-25 11:34N 48°56' W 123°19'1211.7
2015-Feb-25 10:34N 49°08' W 123°15'8 8.3
2015-Feb-25 09:33N 49°09' W 123°02'0 0.0
2015-Feb-25 08:33N 49°09' W 123°02'9 9.2
2015-Feb-25 07:34N 49°07' W 123°16'1110.8
2015-Feb-25 06:33N 49°09' W 123°32'1211.6
2015-Feb-25 05:34N 49°13' W 123°49'6 5.5
2015-Feb-25 04:33N 49°10' W 123°56'0 0.1
2015-Feb-25 03:33N 49°10' W 123°56'1111.0
2015-Feb-25 02:33N 49°12' W 123°39'1312.9
2015-Feb-25 01:33N 49°07' W 123°21'1212.2
2015-Feb-25 00:34N 49°09' W 123°02'0 0.1
2015-Feb-24 23:33N 49°09' W 123°02'5 4.7
2015-Feb-24 22:33N 49°06' W 123°09'8 7.8
2015-Feb-24 21:33N 49°02' W 123°19'1212.5
2015-Feb-24 20:33N 48°50' W 123°21'9 9.0
2015-Feb-24 19:33N 48°41' W 123°24'0 0.0
2015-Feb-24 18:33N 48°41' W 123°24'0 0.0
2015-Feb-24 17:32N 48°41' W 123°24'0 0.0
2015-Feb-24 16:32N 48°41' W 123°24'0 0.0
2015-Feb-24 15:33N 48°41' W 123°24'0 0.0
2015-Feb-24 14:34N 48°41' W 123°24'0 0.0
2015-Feb-24 13:34N 48°41' W 123°24'2 2.2
2015-Feb-24 12:33N 48°42' W 123°22'1312.8
2015-Feb-24 11:33N 48°55' W 123°18'1313.1
2015-Feb-24 10:34N 49°08' W 123°14'8 7.6
2015-Feb-24 09:33N 49°09' W 123°02'0 0.0
2015-Feb-24 08:33N 49°09' W 123°02'8 8.0
2015-Feb-24 07:34N 49°08' W 123°14'1111.1
2015-Feb-24 06:33N 49°09' W 123°31'1212.1
2015-Feb-24 05:33N 49°13' W 123°49'6 5.6
2015-Feb-24 04:33N 49°10' W 123°56'0 0.1
2015-Feb-24 03:33N 49°10' W 123°56'10 9.6
2015-Feb-24 02:33N 49°12' W 123°41'1212.3
2015-Feb-24 01:33N 49°07' W 123°24'1313.1
2015-Feb-24 00:33N 49°08' W 123°04'1 1.4
2015-Feb-23 23:33N 49°09' W 123°02'0 0.0
2015-Feb-23 22:33N 49°09' W 123°02'0 0.1
2015-Feb-23 21:33N 49°09' W 123°02'0 0.0
2015-Feb-23 20:33N 49°09' W 123°02'0 0.0
2015-Feb-23 19:33N 49°09' W 123°02'0 0.0
2015-Feb-23 18:33N 49°09' W 123°02'0 0.0
2015-Feb-23 17:33N 49°09' W 123°02'0 0.0
2015-Feb-23 16:33N 49°09' W 123°02'0 0.0
2015-Feb-23 15:33N 49°09' W 123°02'0 0.0
2015-Feb-23 14:33N 49°09' W 123°02'0 0.0
2015-Feb-23 13:33N 49°09' W 123°02'0 0.0
2015-Feb-23 12:33N 49°09' W 123°02'0 0.0
2015-Feb-23 11:33N 49°09' W 123°02'0 0.0
2015-Feb-23 10:33N 49°09' W 123°02'0 0.0
2015-Feb-23 09:33N 49°09' W 123°02'0 0.0
2015-Feb-23 08:33N 49°09' W 123°02'0 0.0
2015-Feb-23 07:33N 49°09' W 123°02'0 0.0
2015-Feb-23 06:33N 49°09' W 123°02'0 0.0
2015-Feb-23 05:33N 49°09' W 123°02'0 0.0
2015-Feb-23 04:33N 49°09' W 123°02'0 0.0
2015-Feb-23 03:33N 49°09' W 123°02'0 0.0
2015-Feb-23 02:33N 49°09' W 123°02'0 0.0
2015-Feb-23 01:33N 49°09' W 123°02'0 0.0
2015-Feb-23 00:33N 49°09' W 123°02'0 0.0
2015-Feb-22 23:33N 49°09' W 123°02'0 0.0
2015-Feb-22 22:33N 49°09' W 123°02'0 0.0
2015-Feb-22 21:33N 49°09' W 123°02'0 0.0
2015-Feb-22 20:33N 49°09' W 123°02'0 0.0
2015-Feb-22 19:33N 49°09' W 123°02'0 0.0
2015-Feb-22 18:33N 49°09' W 123°02'0 0.0
2015-Feb-22 17:33N 49°09' W 123°02'0 0.0
2015-Feb-22 16:33N 49°09' W 123°02'4 4.3
2015-Feb-22 15:34N 49°06' W 123°08'1110.9
2015-Feb-22 14:33N 48°58' W 123°19'1514.7
2015-Feb-22 13:33N 48°44' W 123°23'3 2.8
2015-Feb-22 12:33N 48°41' W 123°24'0 0.0
2015-Feb-22 11:33N 48°41' W 123°24'10 9.6
2015-Feb-22 10:32N 48°51' W 123°21'9 9.1
2015-Feb-22 09:33N 48°60' W 123°20'6 5.8
2015-Feb-22 08:34N 49°05' W 123°20'1212.0
2015-Feb-22 07:33N 49°09' W 123°02'0 0.2
2015-Feb-22 06:33N 49°09' W 123°02'0 0.0
2015-Feb-22 05:33N 49°09' W 123°02'0 0.0
2015-Feb-22 04:33N 49°09' W 123°02'0 0.0
2015-Feb-22 03:33N 49°09' W 123°02'0 0.0
2015-Feb-22 02:33N 49°09' W 123°02'0 0.0
2015-Feb-22 01:33N 49°09' W 123°02'0 0.0
2015-Feb-22 00:33N 49°09' W 123°02'0 0.0
2015-Feb-21 23:33N 49°09' W 123°02'0 0.0
2015-Feb-21 22:33N 49°09' W 123°02'0 0.0
2015-Feb-21 21:33N 49°09' W 123°02'0 0.0
2015-Feb-21 20:33N 49°09' W 123°02'0 0.0
2015-Feb-21 19:33N 49°09' W 123°02'0 0.0
2015-Feb-21 18:33N 49°09' W 123°02'0 0.0
2015-Feb-21 17:33N 49°09' W 123°02'0 0.0
2015-Feb-21 16:33N 49°09' W 123°02'0 0.0
2015-Feb-21 15:33N 49°09' W 123°02'0 0.0
2015-Feb-21 14:33N 49°09' W 123°02'0 0.0
2015-Feb-21 13:33N 49°09' W 123°02'0 0.0
2015-Feb-21 12:33N 49°09' W 123°02'0 0.0
2015-Feb-21 11:33N 49°09' W 123°02'0 0.0
2015-Feb-21 10:33N 49°09' W 123°02'0 0.0
2015-Feb-21 09:33N 49°09' W 123°02'0 0.1
2015-Feb-21 08:33N 49°09' W 123°02'7 6.8
2015-Feb-21 07:33N 49°08' W 123°12'1313.1
2015-Feb-21 06:33N 49°09' W 123°32'1414.4
2015-Feb-21 05:33N 49°11' W 123°54'2 1.6
2015-Feb-21 04:28N 49°10' W 123°56'0 0.1
2015-Feb-21 03:33N 49°10' W 123°56'1211.5
2015-Feb-21 02:33N 49°12' W 123°38'1414.3
2015-Feb-21 01:34N 49°06' W 123°18'1110.8
2015-Feb-21 00:33N 49°09' W 123°02'0 0.0
2015-Feb-20 23:34N 49°09' W 123°02'4 3.8
2015-Feb-20 22:33N 49°07' W 123°07'10 9.7
2015-Feb-20 21:34N 49°02' W 123°20'1312.8
2015-Feb-20 20:33N 48°49' W 123°20'8 8.5
2015-Feb-20 19:33N 48°41' W 123°24'  
Track history (hours):
 
Tides and Currents Weather Stations Pressure Air Temp Water Temp Dewpoint Dewpoint Depression Visibility Wind Speed Wind Dir Waves Ship Positions

Carrier Princess

Last reported at 2015-Mar-02 18:34 UTC. Time now 2015-Mar-02 18:59 UTC.
Position N 49°09' W 123°02'.

Length 112 m; draft 3 m.

Type: Cargo ship. MMSI: 316003656.

Date/timePositionNaut miles runAvg speedWind from/ knotsBaromVisibWave heightAir tempDewpointWater temp
2015-Mar-02 18:34N 49°09' W 123°02'0 0.0
2015-Mar-02 17:34N 49°09' W 123°02'0 0.0
2015-Mar-02 16:33N 49°09' W 123°02'0 0.0
2015-Mar-02 15:34N 49°09' W 123°02'0 0.0
2015-Mar-02 14:34N 49°09' W 123°02'0 0.0
2015-Mar-02 13:34N 49°09' W 123°02'0 0.0
2015-Mar-02 12:34N 49°09' W 123°02'0 0.0
2015-Mar-02 11:34N 49°09' W 123°02'0 0.0
2015-Mar-02 10:34N 49°09' W 123°02'0 0.0
2015-Mar-02 09:34N 49°09' W 123°02'0 0.0
2015-Mar-02 08:34N 49°09' W 123°02'0 0.0
2015-Mar-02 07:34N 49°09' W 123°02'0 0.0
2015-Mar-02 06:33N 49°09' W 123°02'0 0.0
2015-Mar-02 05:34N 49°09' W 123°02'0 0.0
2015-Mar-02 04:34N 49°09' W 123°02'0 0.0
2015-Mar-02 03:34N 49°09' W 123°02'0 0.0
2015-Mar-02 02:34N 49°09' W 123°02'0 0.0
2015-Mar-02 01:34N 49°09' W 123°02'0 0.0
2015-Mar-02 00:34N 49°09' W 123°02'0 0.0
2015-Mar-01 23:34N 49°09' W 123°02'0 0.0
2015-Mar-01 22:33N 49°09' W 123°02'0 0.0
2015-Mar-01 21:34N 49°09' W 123°02'0 0.0
2015-Mar-01 20:34N 49°09' W 123°02'0 0.0
2015-Mar-01 19:34N 49°09' W 123°02'0 0.0
2015-Mar-01 18:34N 49°09' W 123°02'0 0.0
2015-Mar-01 17:34N 49°09' W 123°02'0 0.0
2015-Mar-01 16:34N 49°09' W 123°02'2 2.4
2015-Mar-01 15:34N 49°07' W 123°05'9 9.4
2015-Mar-01 14:34N 49°06' W 123°19'1110.8
2015-Mar-01 13:34N 49°10' W 123°35'1110.5
2015-Mar-01 12:33N 49°13' W 123°50'5 4.7
2015-Mar-01 11:33N 49°10' W 123°56'0 0.0
2015-Mar-01 10:33N 49°10' W 123°56'7 6.7
2015-Mar-01 09:33N 49°13' W 123°47'8 7.9
2015-Mar-01 08:34N 49°10' W 123°36'10 9.8
2015-Mar-01 07:34N 49°07' W 123°22'1010.2
2015-Mar-01 06:33N 49°07' W 123°06'3 3.3
2015-Mar-01 05:34N 49°09' W 123°02'0 0.0
2015-Mar-01 04:34N 49°09' W 123°02'0 0.0
2015-Mar-01 03:34N 49°09' W 123°02'0 0.0
2015-Mar-01 02:33N 49°09' W 123°02'0 0.0
2015-Mar-01 01:34N 49°09' W 123°02'0 0.0
2015-Mar-01 00:34N 49°09' W 123°02'0 0.0
2015-Feb-28 23:34N 49°09' W 123°02'5 4.6
2015-Feb-28 22:34N 49°06' W 123°08'8 8.2
2015-Feb-28 21:34N 49°02' W 123°19'1212.1
2015-Feb-28 20:33N 48°50' W 123°21'9 9.0
2015-Feb-28 19:33N 48°41' W 123°24'0 0.0
2015-Feb-28 18:34N 48°41' W 123°24'0 0.0
2015-Feb-28 17:33N 48°41' W 123°24'0 0.0
2015-Feb-28 16:34N 48°41' W 123°24'0 0.0
2015-Feb-28 15:33N 48°41' W 123°24'0 0.0
2015-Feb-28 14:33N 48°41' W 123°24'0 0.0
2015-Feb-28 13:33N 48°41' W 123°24'3 3.4
2015-Feb-28 12:33N 48°44' W 123°21'1312.7
2015-Feb-28 11:33N 48°56' W 123°18'1211.8
2015-Feb-28 10:34N 49°08' W 123°15'8 8.2
2015-Feb-28 09:33N 49°09' W 123°02'0 0.0
2015-Feb-28 08:33N 49°09' W 123°02'9 8.9
2015-Feb-28 07:33N 49°07' W 123°16'1110.8
2015-Feb-28 06:33N 49°09' W 123°32'1111.4
2015-Feb-28 05:33N 49°13' W 123°48'6 5.8
2015-Feb-28 04:33N 49°10' W 123°56'0 0.1
2015-Feb-28 03:33N 49°10' W 123°56'1212.2
2015-Feb-28 02:33N 49°11' W 123°37'1514.7
2015-Feb-28 01:33N 49°08' W 123°15'8 8.5
2015-Feb-28 00:33N 49°09' W 123°02'0 0.0
2015-Feb-27 23:33N 49°09' W 123°02'4 4.2
2015-Feb-27 22:33N 49°06' W 123°08'9 8.8
2015-Feb-27 21:33N 49°02' W 123°19'1211.7
2015-Feb-27 20:33N 48°50' W 123°21'9 8.7
2015-Feb-27 19:31N 48°41' W 123°24'0 0.0
2015-Feb-27 18:31N 48°41' W 123°24'0 0.0
2015-Feb-27 17:33N 48°41' W 123°24'0 0.0
2015-Feb-27 16:33N 48°41' W 123°24'0 0.0
2015-Feb-27 15:32N 48°41' W 123°24'0 0.0
2015-Feb-27 14:33N 48°41' W 123°24'0 0.0
2015-Feb-27 13:33N 48°41' W 123°24'5 4.7
2015-Feb-27 12:33N 48°45' W 123°21'1212.3
2015-Feb-27 11:33N 48°58' W 123°19'1110.9
2015-Feb-27 10:34N 49°08' W 123°14'7 7.5
2015-Feb-27 09:33N 49°09' W 123°02'0 0.0
2015-Feb-27 08:33N 49°09' W 123°02'10 9.7
2015-Feb-27 07:33N 49°07' W 123°17'1111.3
2015-Feb-27 06:33N 49°09' W 123°34'1212.0
2015-Feb-27 05:33N 49°13' W 123°51'4 3.8
2015-Feb-27 04:32N 49°10' W 123°56'0 0.3
2015-Feb-27 03:33N 49°10' W 123°55'1010.2
2015-Feb-27 02:33N 49°12' W 123°40'1211.9
2015-Feb-27 01:33N 49°07' W 123°24'1313.4
2015-Feb-27 00:34N 49°08' W 123°03'1 0.8
2015-Feb-26 23:34N 49°09' W 123°02'3 3.2
2015-Feb-26 22:33N 49°07' W 123°06'9 9.3
2015-Feb-26 21:34N 49°03' W 123°19'1312.8
2015-Feb-26 20:33N 48°50' W 123°21'9 9.1
2015-Feb-26 19:32N 48°41' W 123°24'0 0.0
2015-Feb-26 18:33N 48°41' W 123°24'0 0.0
2015-Feb-26 17:33N 48°41' W 123°24'0 0.0
2015-Feb-26 16:33N 48°41' W 123°24'0 0.0
2015-Feb-26 15:33N 48°41' W 123°24'0 0.0
2015-Feb-26 14:33N 48°41' W 123°24'0 0.0
2015-Feb-26 13:33N 48°41' W 123°24'4 4.0
2015-Feb-26 12:33N 48°45' W 123°21'1212.3
2015-Feb-26 11:33N 48°57' W 123°19'1111.3
2015-Feb-26 10:34N 49°08' W 123°15'8 8.3
2015-Feb-26 09:33N 49°09' W 123°02'0 0.0
2015-Feb-26 08:33N 49°09' W 123°02'9 9.2
2015-Feb-26 07:33N 49°07' W 123°16'1110.5
2015-Feb-26 06:33N 49°09' W 123°32'1111.3
2015-Feb-26 05:33N 49°13' W 123°48'6 5.4
2015-Feb-26 04:27N 49°10' W 123°56'0 0.0
2015-Feb-26 03:32N 49°10' W 123°56'10 9.7
2015-Feb-26 02:33N 49°12' W 123°41'1312.7
2015-Feb-26 01:33N 49°07' W 123°24'1313.4
2015-Feb-26 00:34N 49°08' W 123°03'1 0.9
2015-Feb-25 23:33N 49°09' W 123°02'5 5.0
2015-Feb-25 22:33N 49°06' W 123°09'8 8.2
2015-Feb-25 21:33N 49°02' W 123°19'1212.2
2015-Feb-25 20:33N 48°50' W 123°20'9 8.8
2015-Feb-25 19:33N 48°41' W 123°24'0 0.0
2015-Feb-25 18:32N 48°41' W 123°24'0 0.0
2015-Feb-25 17:33N 48°41' W 123°24'0 0.0
2015-Feb-25 16:33N 48°41' W 123°24'0 0.0
2015-Feb-25 15:33N 48°41' W 123°24'0 0.0
2015-Feb-25 14:33N 48°41' W 123°24'0 0.0
2015-Feb-25 13:33N 48°41' W 123°24'4 3.6
2015-Feb-25 12:33N 48°44' W 123°21'1212.3
2015-Feb-25 11:34N 48°56' W 123°19'1211.7
2015-Feb-25 10:34N 49°08' W 123°15'8 8.3
2015-Feb-25 09:33N 49°09' W 123°02'0 0.0
2015-Feb-25 08:33N 49°09' W 123°02'9 9.2
2015-Feb-25 07:34N 49°07' W 123°16'1110.8
2015-Feb-25 06:33N 49°09' W 123°32'1211.6
2015-Feb-25 05:34N 49°13' W 123°49'6 5.5
2015-Feb-25 04:33N 49°10' W 123°56'0 0.1
2015-Feb-25 03:33N 49°10' W 123°56'1111.0
2015-Feb-25 02:33N 49°12' W 123°39'1312.9
2015-Feb-25 01:33N 49°07' W 123°21'1212.2
2015-Feb-25 00:34N 49°09' W 123°02'0 0.1
2015-Feb-24 23:33N 49°09' W 123°02'5 4.7
2015-Feb-24 22:33N 49°06' W 123°09'8 7.8
2015-Feb-24 21:33N 49°02' W 123°19'1212.5
2015-Feb-24 20:33N 48°50' W 123°21'9 9.0
2015-Feb-24 19:33N 48°41' W 123°24'0 0.0
2015-Feb-24 18:33N 48°41' W 123°24'0 0.0
2015-Feb-24 17:32N 48°41' W 123°24'0 0.0
2015-Feb-24 16:32N 48°41' W 123°24'0 0.0
2015-Feb-24 15:33N 48°41' W 123°24'0 0.0
2015-Feb-24 14:34N 48°41' W 123°24'0 0.0
2015-Feb-24 13:34N 48°41' W 123°24'2 2.2
2015-Feb-24 12:33N 48°42' W 123°22'1312.8
2015-Feb-24 11:33N 48°55' W 123°18'1313.1
2015-Feb-24 10:34N 49°08' W 123°14'8 7.6
2015-Feb-24 09:33N 49°09' W 123°02'0 0.0
2015-Feb-24 08:33N 49°09' W 123°02'8 8.0
2015-Feb-24 07:34N 49°08' W 123°14'1111.1
2015-Feb-24 06:33N 49°09' W 123°31'1212.1
2015-Feb-24 05:33N 49°13' W 123°49'6 5.6
2015-Feb-24 04:33N 49°10' W 123°56'0 0.1
2015-Feb-24 03:33N 49°10' W 123°56'10 9.6
2015-Feb-24 02:33N 49°12' W 123°41'1212.3
2015-Feb-24 01:33N 49°07' W 123°24'1313.1
2015-Feb-24 00:33N 49°08' W 123°04'1 1.4
2015-Feb-23 23:33N 49°09' W 123°02'0 0.0
2015-Feb-23 22:33N 49°09' W 123°02'0 0.1
2015-Feb-23 21:33N 49°09' W 123°02'0 0.0
2015-Feb-23 20:33N 49°09' W 123°02'0 0.0
2015-Feb-23 19:33N 49°09' W 123°02'0 0.0
2015-Feb-23 18:33N 49°09' W 123°02'0 0.0
2015-Feb-23 17:33N 49°09' W 123°02'0 0.0
2015-Feb-23 16:33N 49°09' W 123°02'0 0.0
2015-Feb-23 15:33N 49°09' W 123°02'0 0.0
2015-Feb-23 14:33N 49°09' W 123°02'0 0.0
2015-Feb-23 13:33N 49°09' W 123°02'0 0.0
2015-Feb-23 12:33N 49°09' W 123°02'0 0.0
2015-Feb-23 11:33N 49°09' W 123°02'0 0.0
2015-Feb-23 10:33N 49°09' W 123°02'0 0.0
2015-Feb-23 09:33N 49°09' W 123°02'0 0.0
2015-Feb-23 08:33N 49°09' W 123°02'0 0.0
2015-Feb-23 07:33N 49°09' W 123°02'0 0.0
2015-Feb-23 06:33N 49°09' W 123°02'0 0.0
2015-Feb-23 05:33N 49°09' W 123°02'0 0.0
2015-Feb-23 04:33N 49°09' W 123°02'0 0.0
2015-Feb-23 03:33N 49°09' W 123°02'0 0.0
2015-Feb-23 02:33N 49°09' W 123°02'0 0.0
2015-Feb-23 01:33N 49°09' W 123°02'0 0.0
2015-Feb-23 00:33N 49°09' W 123°02'0 0.0
2015-Feb-22 23:33N 49°09' W 123°02'0 0.0
2015-Feb-22 22:33N 49°09' W 123°02'0 0.0
2015-Feb-22 21:33N 49°09' W 123°02'0 0.0
2015-Feb-22 20:33N 49°09' W 123°02'0 0.0
2015-Feb-22 19:33N 49°09' W 123°02'0 0.0
2015-Feb-22 18:33N 49°09' W 123°02'0 0.0
2015-Feb-22 17:33N 49°09' W 123°02'0 0.0
2015-Feb-22 16:33N 49°09' W 123°02'4 4.3
2015-Feb-22 15:34N 49°06' W 123°08'1110.9
2015-Feb-22 14:33N 48°58' W 123°19'1514.7
2015-Feb-22 13:33N 48°44' W 123°23'3 2.8
2015-Feb-22 12:33N 48°41' W 123°24'0 0.0
2015-Feb-22 11:33N 48°41' W 123°24'10 9.6
2015-Feb-22 10:32N 48°51' W 123°21'9 9.1
2015-Feb-22 09:33N 48°60' W 123°20'6 5.8
2015-Feb-22 08:34N 49°05' W 123°20'1212.0
2015-Feb-22 07:33N 49°09' W 123°02'0 0.2
2015-Feb-22 06:33N 49°09' W 123°02'0 0.0
2015-Feb-22 05:33N 49°09' W 123°02'0 0.0
2015-Feb-22 04:33N 49°09' W 123°02'0 0.0
2015-Feb-22 03:33N 49°09' W 123°02'0 0.0
2015-Feb-22 02:33N 49°09' W 123°02'0 0.0
2015-Feb-22 01:33N 49°09' W 123°02'0 0.0
2015-Feb-22 00:33N 49°09' W 123°02'0 0.0
2015-Feb-21 23:33N 49°09' W 123°02'0 0.0
2015-Feb-21 22:33N 49°09' W 123°02'0 0.0
2015-Feb-21 21:33N 49°09' W 123°02'0 0.0
2015-Feb-21 20:33N 49°09' W 123°02'0 0.0
2015-Feb-21 19:33N 49°09' W 123°02'0 0.0
2015-Feb-21 18:33N 49°09' W 123°02'0 0.0
2015-Feb-21 17:33N 49°09' W 123°02'0 0.0
2015-Feb-21 16:33N 49°09' W 123°02'0 0.0
2015-Feb-21 15:33N 49°09' W 123°02'0 0.0
2015-Feb-21 14:33N 49°09' W 123°02'0 0.0
2015-Feb-21 13:33N 49°09' W 123°02'0 0.0
2015-Feb-21 12:33N 49°09' W 123°02'0 0.0
2015-Feb-21 11:33N 49°09' W 123°02'0 0.0
2015-Feb-21 10:33N 49°09' W 123°02'0 0.0
2015-Feb-21 09:33N 49°09' W 123°02'0 0.1
2015-Feb-21 08:33N 49°09' W 123°02'7 6.8
2015-Feb-21 07:33N 49°08' W 123°12'1313.1
2015-Feb-21 06:33N 49°09' W 123°32'1414.4
2015-Feb-21 05:33N 49°11' W 123°54'2 1.6
2015-Feb-21 04:28N 49°10' W 123°56'0 0.1
2015-Feb-21 03:33N 49°10' W 123°56'1211.5
2015-Feb-21 02:33N 49°12' W 123°38'1414.3
2015-Feb-21 01:34N 49°06' W 123°18'1110.8
2015-Feb-21 00:33N 49°09' W 123°02'0 0.0
2015-Feb-20 23:34N 49°09' W 123°02'4 3.8
2015-Feb-20 22:33N 49°07' W 123°07'10 9.7
2015-Feb-20 21:34N 49°02' W 123°20'1312.8
2015-Feb-20 20:33N 48°49' W 123°20'8 8.5
2015-Feb-20 19:33N 48°41' W 123°24'  

Dump ship's entire track history